Time;durP1;ratioP1;P1;durP2;ratioP2;P2;SDS_P1;SDS_P2;PMS_P1;PMS_P2;Temp;Humidity;BMP_temperature;BMP_pressure;BME280_temperature;BME280_humidity;BME280_pressure;Samples;Min_cycle;Max_cycle;Signal;HPM_P1;HPM_P2
2022/07/20 00:01:16;;;;;;;5.13;2.10;;;23.50;99.90;;;;;;5089927;28;20198;-68
2022/07/20 00:03:45;;;;;;;4.97;2.00;;;23.50;99.90;;;;;;5089534;28;20878;-68
2022/07/20 00:06:13;;;;;;;2.45;1.88;;;23.40;99.90;;;;;;5081893;28;20217;-67
2022/07/20 00:11:24;;;;;;;4.90;2.00;;;23.40;99.90;;;;;;5089851;28;20186;-67
2022/07/20 00:14:00;;;;;;;3.70;1.77;;;23.40;99.90;;;;;;5089780;28;20186;-67
2022/07/20 00:16:29;;;;;;;5.37;1.87;;;23.40;99.90;;;;;;5086373;28;20272;-67
2022/07/20 00:18:57;;;;;;;2.83;1.80;;;23.30;99.90;;;;;;5070790;28;20695;-68
2022/07/20 00:21:24;;;;;;;3.45;1.92;;;23.30;99.90;;;;;;5089645;28;20189;-68
2022/07/20 00:23:51;;;;;;;3.30;1.90;;;23.30;99.90;;;;;;5070577;28;20304;-67
2022/07/20 00:26:18;;;;;;;3.20;1.67;;;23.30;99.90;;;;;;5087120;28;20206;-67
2022/07/20 00:28:44;;;;;;;4.20;1.40;;;23.20;99.90;;;;;;5089292;28;20908;-67
2022/07/20 00:31:10;;;;;;;3.27;1.60;;;23.20;99.90;;;;;;5089072;28;20186;-69
2022/07/20 00:33:37;;;;;;;3.70;1.80;;;23.20;99.90;;;;;;5070510;28;20591;-67
2022/07/20 00:36:04;;;;;;;4.43;1.70;;;23.20;99.90;;;;;;5086301;28;20264;-68
2022/07/20 00:38:31;;;;;;;3.70;1.70;;;23.20;99.90;;;;;;5070180;28;20228;-67
2022/07/20 00:40:57;;;;;;;5.60;1.70;;;23.10;99.90;;;;;;5069692;28;20182;-67
2022/07/20 00:43:23;;;;;;;3.58;1.73;;;23.10;99.90;;;;;;5088021;28;20198;-67
2022/07/20 00:45:50;;;;;;;4.37;1.60;;;23.10;99.90;;;;;;5088086;28;20797;-68
2022/07/20 00:48:16;;;;;;;2.70;1.50;;;23.00;99.90;;;;;;5087048;28;20222;-68
2022/07/20 00:50:42;;;;;;;5.30;1.90;;;23.00;99.90;;;;;;5086618;28;20495;-69
2022/07/20 00:53:09;;;;;;;3.60;1.63;;;23.00;99.90;;;;;;5066343;28;20198;-68
2022/07/20 00:55:37;;;;;;;5.50;1.53;;;23.00;99.90;;;;;;5088834;28;20327;-67
2022/07/20 00:58:03;;;;;;;2.03;1.60;;;23.00;99.90;;;;;;5087386;28;20647;-67
2022/07/20 01:00:30;;;;;;;4.03;1.70;;;22.90;99.90;;;;;;5058308;28;20872;-67
2022/07/20 01:02:56;;;;;;;4.87;1.70;;;22.90;99.90;;;;;;5085624;28;20233;-67
2022/07/20 01:05:24;;;;;;;7.37;1.70;;;22.90;99.90;;;;;;5087818;28;20218;-68
2022/07/20 01:07:51;;;;;;;2.93;1.70;;;22.90;99.90;;;;;;5086078;28;20286;-69
2022/07/20 01:10:19;;;;;;;5.37;1.80;;;22.80;99.90;;;;;;5052839;28;20285;-67
2022/07/20 01:12:49;;;;;;;2.33;1.70;;;22.80;99.90;;;;;;5069885;28;20193;-68
2022/07/20 01:15:17;;;;;;;7.93;1.77;;;22.80;99.90;;;;;;5082909;28;20255;-68
2022/07/20 01:17:44;;;;;;;2.50;1.60;;;22.80;99.90;;;;;;5082270;28;20316;-68
2022/07/20 01:20:17;;;;;;;3.03;1.80;;;22.90;99.90;;;;;;5088067;28;20201;-67
2022/07/20 01:22:45;;;;;;;2.70;1.80;;;22.90;99.90;;;;;;5088655;28;20231;-68
2022/07/20 01:25:11;;;;;;;3.00;1.77;;;22.90;99.90;;;;;;5070871;28;20243;-68
2022/07/20 01:27:38;;;;;;;5.53;1.87;;;22.90;99.90;;;;;;5070210;28;20202;-67
2022/07/20 01:30:05;;;;;;;5.47;1.60;;;23.00;99.90;;;;;;5088359;28;20184;-68
2022/07/20 01:32:34;;;;;;;3.23;1.90;;;23.00;99.90;;;;;;5088384;28;20629;-67
2022/07/20 01:35:00;;;;;;;4.40;1.97;;;22.90;99.90;;;;;;5087484;28;20251;-67
2022/07/20 01:37:28;;;;;;;2.43;1.70;;;22.80;99.90;;;;;;5071550;28;20190;-67
2022/07/20 01:39:55;;;;;;;4.83;2.00;;;22.80;99.90;;;;;;5088295;28;20237;-69
2022/07/20 01:42:22;;;;;;;3.53;1.70;;;22.80;99.90;;;;;;5066526;28;20218;-67
2022/07/20 01:44:49;;;;;;;2.37;1.70;;;22.80;99.90;;;;;;5063786;28;20205;-67
2022/07/20 01:47:15;;;;;;;6.87;1.80;;;22.70;99.90;;;;;;5078589;28;20194;-68
2022/07/20 01:49:42;;;;;;;9.70;1.93;;;22.60;99.90;;;;;;5069411;28;20225;-68
2022/07/20 01:52:09;;;;;;;3.60;1.80;;;22.60;99.90;;;;;;5067915;28;20280;-68
2022/07/20 01:54:35;;;;;;;5.80;1.87;;;22.60;99.90;;;;;;5087788;28;20197;-66
2022/07/20 01:57:01;;;;;;;2.30;1.70;;;22.50;99.90;;;;;;5085230;28;20261;-67
2022/07/20 01:59:28;;;;;;;3.20;1.87;;;22.50;99.90;;;;;;5069035;28;20193;-67
2022/07/20 02:01:54;;;;;;;3.67;1.70;;;22.40;99.90;;;;;;5087092;28;20235;-68
2022/07/20 02:04:20;;;;;;;2.30;2.10;;;22.50;99.90;;;;;;5070906;28;20221;-67
2022/07/20 02:06:48;;;;;;;2.97;1.60;;;22.50;99.90;;;;;;5086941;28;20202;-69
2022/07/20 02:09:14;;;;;;;4.43;1.70;;;22.40;99.90;;;;;;5064841;28;20225;-67
2022/07/20 02:11:41;;;;;;;5.30;1.90;;;22.30;99.90;;;;;;5070199;28;20299;-68
2022/07/20 02:14:07;;;;;;;4.50;2.07;;;22.30;99.90;;;;;;5061922;28;20178;-67
2022/07/20 02:16:35;;;;;;;4.13;1.80;;;22.30;99.90;;;;;;5065003;28;20289;-67
2022/07/20 02:19:01;;;;;;;2.27;1.83;;;22.20;99.90;;;;;;5067739;28;20196;-67
2022/07/20 02:21:29;;;;;;;5.03;2.00;;;22.20;99.90;;;;;;5056838;28;20242;-68
2022/07/20 02:23:56;;;;;;;6.87;1.80;;;22.20;99.90;;;;;;5070637;28;20206;-68
2022/07/20 02:26:23;;;;;;;2.90;1.70;;;22.10;99.90;;;;;;5087800;28;20206;-67
2022/07/20 02:28:49;;;;;;;5.17;2.00;;;22.10;99.90;;;;;;5091704;28;20214;-67
2022/07/20 02:31:18;;;;;;;2.83;1.80;;;22.00;99.90;;;;;;5091757;28;20817;-69
2022/07/20 02:33:45;;;;;;;7.07;2.07;;;22.00;99.90;;;;;;5073669;28;20194;-67
2022/07/20 02:36:12;;;;;;;2.60;1.70;;;22.10;99.90;;;;;;5063079;28;20194;-67
2022/07/20 02:38:39;;;;;;;2.83;1.80;;;22.10;99.90;;;;;;5069738;28;20194;-67
2022/07/20 02:41:06;;;;;;;4.20;1.80;;;22.10;99.90;;;;;;5074644;28;20178;-67
2022/07/20 02:43:33;;;;;;;7.93;2.20;;;22.00;99.90;;;;;;5070774;28;20247;-68
2022/07/20 02:45:59;;;;;;;4.20;1.63;;;22.00;99.90;;;;;;5090825;28;20705;-70
2022/07/20 02:48:25;;;;;;;5.50;1.53;;;22.00;99.90;;;;;;5091033;28;20336;-67
2022/07/20 02:50:52;;;;;;;10.17;1.87;;;22.00;99.90;;;;;;5078373;28;20214;-65
2022/07/20 02:53:19;;;;;;;3.10;1.63;;;22.00;99.90;;;;;;5080938;28;20199;-67
2022/07/20 02:55:46;;;;;;;7.30;1.90;;;22.00;99.90;;;;;;5092852;28;20645;-67
2022/07/20 02:58:13;;;;;;;7.00;1.90;;;21.90;99.90;;;;;;5079269;28;20767;-69
2022/07/20 03:00:41;;;;;;;8.30;1.70;;;21.90;99.90;;;;;;5091226;28;20720;-67
2022/07/20 03:03:08;;;;;;;1.93;1.50;;;21.90;99.90;;;;;;5088873;28;20288;-67
2022/07/20 03:05:36;;;;;;;4.40;1.83;;;21.90;99.90;;;;;;5081310;28;20815;-67
2022/07/20 03:08:03;;;;;;;3.73;1.40;;;21.90;99.90;;;;;;5088381;28;20559;-67
2022/07/20 03:10:32;;;;;;;6.00;2.07;;;21.90;99.90;;;;;;5068336;28;20194;-67
2022/07/20 03:12:58;;;;;;;6.73;1.80;;;21.90;99.90;;;;;;5079864;28;20844;-67
2022/07/20 03:15:25;;;;;;;3.37;1.60;;;21.90;99.90;;;;;;5079039;28;20187;-69
2022/07/20 03:17:54;;;;;;;4.70;1.47;;;21.90;99.90;;;;;;5069582;28;20210;-67
2022/07/20 03:20:31;;;;;;;5.47;1.90;;;21.90;99.90;;;;;;5072135;28;20198;-67
2022/07/20 03:23:00;;;;;;;2.33;1.70;;;21.90;99.90;;;;;;5071537;28;20727;-67
2022/07/20 03:25:27;;;;;;;2.13;1.70;;;22.00;99.90;;;;;;5088833;28;20221;-67
2022/07/20 03:27:57;;;;;;;5.80;1.70;;;22.00;99.90;;;;;;5089714;28;20250;-66
2022/07/20 03:30:28;;;;;;;5.90;2.10;;;22.00;99.90;;;;;;5088323;28;20202;-69
2022/07/20 03:32:55;;;;;;;2.30;1.60;;;22.10;99.90;;;;;;5079764;28;20205;-67
2022/07/20 03:35:23;;;;;;;3.43;1.63;;;22.10;99.90;;;;;;5088823;28;20202;-68
2022/07/20 03:37:49;;;;;;;7.10;1.87;;;22.20;99.90;;;;;;5089774;28;20182;-68
2022/07/20 03:40:16;;;;;;;6.73;1.90;;;22.20;99.90;;;;;;5090455;28;20178;-67
2022/07/20 03:42:42;;;;;;;3.17;1.67;;;22.20;99.90;;;;;;5072511;28;20277;-67
2022/07/20 03:45:10;;;;;;;3.80;1.50;;;22.20;99.90;;;;;;5084537;28;20269;-65
2022/07/20 03:47:37;;;;;;;2.50;1.40;;;22.20;99.90;;;;;;5088526;28;20915;-68
2022/07/20 03:50:05;;;;;;;3.27;1.60;;;22.20;99.90;;;;;;5089870;28;20277;-67
2022/07/20 03:52:31;;;;;;;4.30;1.90;;;22.20;99.90;;;;;;5087968;28;20699;-68
2022/07/20 03:54:57;;;;;;;4.33;1.90;;;22.20;99.90;;;;;;5097154;28;20190;-68
2022/07/20 03:57:23;;;;;;;3.17;1.70;;;22.30;99.90;;;;;;5089317;28;20662;-67
2022/07/20 03:59:50;;;;;;;3.73;1.77;;;22.30;99.90;;;;;;5064929;28;20222;-67
2022/07/20 04:02:16;;;;;;;5.20;1.90;;;22.40;99.90;;;;;;5088177;28;20283;-67
2022/07/20 04:04:43;;;;;;;2.60;1.70;;;22.40;99.90;;;;;;5083216;28;20198;-67
2022/07/20 04:07:09;;;;;;;3.97;1.87;;;22.40;99.90;;;;;;5089367;28;20214;-67
2022/07/20 04:09:46;;;;;;;4.83;1.57;;;22.50;99.90;;;;;;5082194;28;20327;-65
2022/07/20 04:12:20;;;;;;;3.13;1.73;;;22.40;99.90;;;;;;5087160;28;20194;-68
2022/07/20 04:14:49;;;;;;;3.73;1.80;;;22.50;99.90;;;;;;5089698;28;20899;-65
2022/07/20 04:17:16;;;;;;;3.00;1.73;;;22.50;99.90;;;;;;5070113;28;20220;-67
2022/07/20 04:19:44;;;;;;;5.13;1.83;;;22.60;99.90;;;;;;5080988;28;20253;-68
2022/07/20 04:22:10;;;;;;;2.83;1.57;;;22.60;99.90;;;;;;5072164;28;20201;-68
2022/07/20 04:24:37;;;;;;;4.67;1.73;;;22.70;99.90;;;;;;5070459;28;20198;-67
2022/07/20 04:27:04;;;;;;;5.40;1.60;;;22.80;99.90;;;;;;5067325;28;20336;-68
2022/07/20 04:29:32;;;;;;;2.97;1.80;;;22.80;99.90;;;;;;5053256;28;20611;-68
2022/07/20 04:31:58;;;;;;;2.23;1.70;;;22.80;99.90;;;;;;5052921;28;20182;-65
2022/07/20 04:34:25;;;;;;;3.17;1.60;;;23.00;99.90;;;;;;5071507;28;20179;-67
2022/07/20 04:36:52;;;;;;;5.23;1.77;;;23.00;99.90;;;;;;5061051;28;20198;-68
2022/07/20 04:39:18;;;;;;;4.57;1.70;;;23.10;99.90;;;;;;5068980;28;20183;-67
2022/07/20 04:41:44;;;;;;;7.53;1.70;;;23.20;99.90;;;;;;5077915;28;20218;-67
2022/07/20 04:44:11;;;;;;;5.23;1.80;;;23.30;99.90;;;;;;5089088;28;20522;-68
2022/07/20 04:46:37;;;;;;;2.43;1.60;;;23.40;99.90;;;;;;5086293;28;20194;-67
2022/07/20 04:49:04;;;;;;;4.50;1.87;;;23.50;99.90;;;;;;5069780;28;20206;-69
2022/07/20 04:51:30;;;;;;;3.93;1.73;;;23.60;99.90;;;;;;5065896;28;20193;-67
2022/07/20 04:53:58;;;;;;;5.30;1.90;;;23.60;99.90;;;;;;5088821;28;20178;-67
2022/07/20 04:56:24;;;;;;;3.33;1.50;;;23.70;99.90;;;;;;5084544;28;20642;-68
2022/07/20 04:58:52;;;;;;;3.93;1.80;;;23.80;99.90;;;;;;5088793;28;20263;-68
2022/07/20 05:01:20;;;;;;;3.27;1.67;;;23.80;99.90;;;;;;5088026;28;20699;-67
2022/07/20 05:03:47;;;;;;;3.65;1.80;;;23.90;99.90;;;;;;5066987;28;20190;-68
2022/07/20 05:06:13;;;;;;;4.93;1.92;;;23.90;99.90;;;;;;5073911;28;20193;-67
2022/07/20 05:08:39;;;;;;;6.63;1.85;;;24.00;99.90;;;;;;5086505;28;20353;-67
2022/07/20 05:11:05;;;;;;;3.13;1.75;;;24.10;99.90;;;;;;5086067;28;20325;-67
2022/07/20 05:13:33;;;;;;;2.92;1.73;;;24.10;99.90;;;;;;5067836;28;20186;-69
2022/07/20 05:16:00;;;;;;;5.25;1.88;;;24.10;99.90;;;;;;5083014;28;20190;-68
2022/07/20 05:18:29;;;;;;;4.50;1.92;;;24.20;99.90;;;;;;5088122;28;20190;-69
2022/07/20 05:20:56;;;;;;;4.10;1.50;;;24.20;99.90;;;;;;5068452;28;20574;-68
2022/07/20 05:23:23;;;;;;;4.78;1.83;;;24.30;99.90;;;;;;5073543;28;20194;-68
2022/07/20 05:25:49;;;;;;;3.60;2.05;;;24.30;99.90;;;;;;5085868;28;20198;-68
2022/07/20 05:28:20;;;;;;;2.72;1.60;;;24.30;99.90;;;;;;5087831;28;20289;-67
2022/07/20 05:30:50;;;;;;;2.53;1.77;;;24.40;99.90;;;;;;5069463;28;20186;-68
2022/07/20 05:33:17;;;;;;;5.35;2.03;;;24.50;99.90;;;;;;5072037;28;20178;-67
2022/07/20 05:35:44;;;;;;;2.40;1.67;;;24.50;99.90;;;;;;5085403;28;20511;-67
2022/07/20 05:38:11;;;;;;;3.15;1.77;;;24.60;99.90;;;;;;5087713;28;20670;-67
2022/07/20 05:40:37;;;;;;;5.45;1.80;;;24.70;99.90;;;;;;5082500;28;20265;-68
2022/07/20 05:43:04;;;;;;;3.13;1.48;;;24.80;99.90;;;;;;5086057;28;20186;-68
2022/07/20 05:45:30;;;;;;;4.03;1.67;;;24.80;99.90;;;;;;5053198;28;20190;-68
2022/07/20 05:47:57;;;;;;;4.32;1.85;;;24.90;99.90;;;;;;5072621;28;20912;-66
2022/07/20 05:50:23;;;;;;;3.47;1.45;;;24.90;99.90;;;;;;5059434;28;20703;-66
2022/07/20 05:52:50;;;;;;;2.72;1.60;;;25.10;99.80;;;;;;5071135;28;20182;-67
2022/07/20 05:55:17;;;;;;;6.95;1.65;;;25.20;98.30;;;;;;5092063;28;20182;-69
2022/07/20 05:57:43;;;;;;;4.72;1.55;;;25.20;98.10;;;;;;5089835;28;20189;-68
2022/07/20 06:00:11;;;;;;;6.30;1.60;;;25.30;98.90;;;;;;5073137;28;20182;-68
2022/07/20 06:02:37;;;;;;;3.05;1.65;;;25.40;98.80;;;;;;5072738;28;20182;-67
2022/07/20 06:05:04;;;;;;;3.60;1.67;;;25.50;98.30;;;;;;5071821;28;20178;-67
2022/07/20 06:07:30;;;;;;;7.75;1.80;;;25.70;97.50;;;;;;5089017;28;20590;-66
2022/07/20 06:09:57;;;;;;;4.85;1.80;;;25.70;97.90;;;;;;5070279;28;20531;-68
2022/07/20 06:12:23;;;;;;;6.82;1.90;;;25.80;98.80;;;;;;5089912;28;20199;-65
2022/07/20 06:14:49;;;;;;;3.35;1.65;;;25.90;99.50;;;;;;5053970;28;20191;-67
2022/07/20 06:17:15;;;;;;;3.25;1.80;;;26.00;98.90;;;;;;5062005;28;20575;-68
2022/07/20 06:19:42;;;;;;;6.90;1.70;;;26.00;98.40;;;;;;5071274;28;20194;-66
2022/07/20 06:22:09;;;;;;;2.50;1.60;;;26.20;98.00;;;;;;5060750;28;20187;-65
2022/07/20 06:24:35;;;;;;;11.52;2.25;;;26.30;96.80;;;;;;5086969;28;20186;-64
2022/07/20 06:27:03;;;;;;;4.43;1.90;;;26.40;99.90;;;;;;5067655;28;20186;-65
2022/07/20 06:29:29;;;;;;;2.53;1.80;;;26.60;99.90;;;;;;5071569;28;20325;-66
2022/07/20 06:31:59;;;;;;;5.15;2.00;;;26.70;99.90;;;;;;5063572;28;20186;-67
2022/07/20 06:34:26;;;;;;;8.27;2.17;;;26.70;99.90;;;;;;5090428;28;20174;-64
2022/07/20 06:36:53;;;;;;;6.10;1.88;;;26.80;99.90;;;;;;5067520;28;20182;-65
2022/07/20 06:39:19;;;;;;;11.70;2.40;;;26.90;99.90;;;;;;5084778;28;20581;-67
2022/07/20 06:41:45;;;;;;;4.55;1.80;;;27.10;99.90;;;;;;5085652;28;20191;-66
2022/07/20 06:44:12;;;;;;;6.90;2.70;;;27.10;99.90;;;;;;5084223;28;20192;-65
2022/07/20 06:46:38;;;;;;;8.02;2.15;;;27.20;99.90;;;;;;5086131;28;20266;-65
2022/07/20 06:49:06;;;;;;;7.47;2.33;;;27.30;99.90;;;;;;5090376;28;20408;-64
2022/07/20 06:51:32;;;;;;;3.92;2.30;;;27.40;99.90;;;;;;5087036;28;20241;-65
2022/07/20 06:54:01;;;;;;;12.90;2.92;;;27.50;99.90;;;;;;5068118;28;20190;-65
2022/07/20 06:56:27;;;;;;;6.32;2.08;;;27.60;99.90;;;;;;5083814;28;20186;-66
2022/07/20 06:58:54;;;;;;;5.57;2.20;;;27.70;99.90;;;;;;5063890;28;20197;-65
2022/07/20 07:01:21;;;;;;;5.13;1.77;;;27.70;99.90;;;;;;5061126;28;20199;-66
2022/07/20 07:03:47;;;;;;;5.88;2.15;;;27.80;99.90;;;;;;5066706;28;20216;-66
2022/07/20 07:06:13;;;;;;;6.30;2.20;;;27.90;99.90;;;;;;5071612;28;20190;-64
2022/07/20 07:08:40;;;;;;;8.20;2.28;;;28.00;99.90;;;;;;5076873;28;20245;-65
2022/07/20 07:11:06;;;;;;;8.80;2.53;;;28.10;99.90;;;;;;5084981;28;20201;-65
2022/07/20 07:13:33;;;;;;;3.13;2.03;;;28.10;99.90;;;;;;5066679;28;20182;-64
2022/07/20 07:16:00;;;;;;;7.80;2.22;;;28.20;99.90;;;;;;5069437;28;20303;-66
2022/07/20 07:18:26;;;;;;;4.70;2.05;;;28.30;99.90;;;;;;5087550;28;20190;-64
2022/07/20 07:20:52;;;;;;;5.38;2.30;;;28.30;99.90;;;;;;5082793;28;20186;-67
2022/07/20 07:23:18;;;;;;;8.63;2.92;;;28.40;99.90;;;;;;5087400;28;20186;-66
2022/07/20 07:25:45;;;;;;;10.73;2.55;;;28.50;99.90;;;;;;5082829;28;20244;-65
2022/07/20 07:28:11;;;;;;;6.78;2.45;;;28.50;99.90;;;;;;5084953;28;20228;-65
2022/07/20 07:30:37;;;;;;;8.85;2.67;;;28.60;99.90;;;;;;5063518;28;20189;-68
2022/07/20 07:33:04;;;;;;;6.60;2.83;;;28.60;99.90;;;;;;5079450;28;20186;-65
2022/07/20 07:35:30;;;;;;;6.90;2.35;;;28.70;99.90;;;;;;5051615;28;20189;-65
2022/07/20 07:37:56;;;;;;;9.05;2.40;;;28.70;99.90;;;;;;5088982;28;20170;-65
2022/07/20 07:40:22;;;;;;;8.05;2.38;;;28.80;99.90;;;;;;5082949;28;20188;-65
2022/07/20 07:42:49;;;;;;;8.80;2.22;;;28.90;99.90;;;;;;5081441;28;20209;-67
2022/07/20 07:45:15;;;;;;;7.80;2.42;;;29.00;99.90;;;;;;5078803;28;20187;-68
2022/07/20 07:47:43;;;;;;;11.07;2.88;;;29.10;99.90;;;;;;5066755;28;20213;-67
2022/07/20 07:50:10;;;;;;;8.70;2.70;;;29.10;99.90;;;;;;5076254;28;20210;-67
2022/07/20 07:52:37;;;;;;;10.45;2.92;;;29.30;99.90;;;;;;5070516;28;20213;-68
2022/07/20 07:55:06;;;;;;;10.70;2.85;;;29.30;99.90;;;;;;5080100;28;20809;-67
2022/07/20 07:57:33;;;;;;;6.68;2.67;;;29.40;99.90;;;;;;5069150;28;21002;-67
2022/07/20 07:59:59;;;;;;;7.68;2.60;;;29.50;99.90;;;;;;5084761;28;20194;-68
2022/07/20 08:02:26;;;;;;;7.55;2.70;;;29.50;99.90;;;;;;5051838;28;20193;-68
2022/07/20 08:04:52;;;;;;;11.63;3.03;;;29.60;99.90;;;;;;5085719;28;22031;-68
2022/07/20 08:07:18;;;;;;;12.15;2.75;;;29.70;99.90;;;;;;5068435;28;20281;-67
2022/07/20 08:09:45;;;;;;;9.52;2.67;;;29.70;99.90;;;;;;5077005;28;20320;-68
2022/07/20 08:12:11;;;;;;;10.73;2.60;;;29.80;99.90;;;;;;5066364;28;20191;-67
2022/07/20 08:14:38;;;;;;;10.60;2.40;;;29.90;99.90;;;;;;5079541;28;20258;-68
2022/07/20 08:17:04;;;;;;;7.05;2.50;;;29.90;99.90;;;;;;5065266;28;20194;-68
2022/07/20 08:19:31;;;;;;;6.32;2.30;;;30.00;99.90;;;;;;5081719;28;20213;-68
2022/07/20 08:21:57;;;;;;;8.05;2.63;;;30.20;99.90;;;;;;5080827;28;20523;-67
2022/07/20 08:24:23;;;;;;;8.38;2.70;;;30.30;99.90;;;;;;5081625;28;20243;-67
2022/07/20 08:26:50;;;;;;;10.82;2.55;;;30.40;99.90;;;;;;5087455;28;20206;-67
2022/07/20 08:29:17;;;;;;;9.07;2.50;;;30.50;99.90;;;;;;5067055;28;20210;-68
2022/07/20 08:31:43;;;;;;;14.15;2.92;;;30.60;99.90;;;;;;5070133;28;20630;-68
2022/07/20 08:34:09;;;;;;;7.95;2.33;;;30.60;99.90;;;;;;5085283;28;20216;-67
2022/07/20 08:36:36;;;;;;;9.35;2.50;;;30.60;99.10;;;;;;5080064;28;20620;-67
2022/07/20 08:39:05;;;;;;;13.45;3.28;;;30.70;99.80;;;;;;5079130;28;20183;-67
2022/07/20 08:41:33;;;;;;;12.25;2.88;;;30.90;99.90;;;;;;5084039;28;20631;-68
2022/07/20 08:44:00;;;;;;;7.30;2.80;;;30.90;99.90;;;;;;5063417;28;20195;-67
2022/07/20 08:46:30;;;;;;;9.43;2.72;;;30.90;99.60;;;;;;5087950;28;20252;-67
2022/07/20 08:48:57;;;;;;;11.05;2.50;;;30.90;99.40;;;;;;5081451;28;20275;-68
2022/07/20 08:51:24;;;;;;;9.35;2.83;;;31.00;99.90;;;;;;5069859;28;20884;-68
2022/07/20 08:53:51;;;;;;;7.38;2.35;;;31.20;99.90;;;;;;5075419;28;20187;-67
2022/07/20 08:56:17;;;;;;;8.40;2.75;;;31.20;97.90;;;;;;5076066;28;20790;-67
2022/07/20 08:58:43;;;;;;;10.98;2.53;;;31.20;99.90;;;;;;5071184;28;20223;-67
2022/07/20 09:01:19;;;;;;;10.80;2.65;;;31.30;99.90;;;;;;5079776;28;20196;-68
2022/07/20 09:04:08;;;;;;;9.70;2.60;;;31.30;99.90;;;;;;5076167;28;20188;-68
2022/07/20 09:06:34;;;;;;;10.85;2.53;;;31.50;97.30;;;;;;5068009;28;20200;-67
2022/07/20 09:09:07;;;;;;;11.85;2.45;;;31.50;98.90;;;;;;5083636;28;20210;-67
2022/07/20 09:11:34;;;;;;;7.53;2.53;;;31.50;97.10;;;;;;5062414;28;20182;-67
2022/07/20 09:14:00;;;;;;;13.35;2.95;;;31.60;98.00;;;;;;5047788;28;20282;-69
2022/07/20 09:16:48;;;;;;;5.93;2.40;;;31.60;99.30;;;;;;5079889;28;20206;-69
2022/07/20 09:19:16;;;;;;;7.20;2.60;;;31.70;97.00;;;;;;5062518;28;20194;-67
2022/07/20 09:21:43;;;;;;;10.55;2.53;;;31.80;97.90;;;;;;5064711;28;20194;-69
2022/07/20 09:24:11;;;;;;;11.25;2.45;;;31.90;98.00;;;;;;5080847;28;20264;-67
2022/07/20 09:26:38;;;;;;;9.68;2.13;;;32.00;97.60;;;;;;5063461;28;20269;-69
2022/07/20 09:29:06;;;;;;;11.48;2.40;;;32.00;95.00;;;;;;5080150;28;20213;-67
2022/07/20 09:31:37;;;;;;;6.32;2.20;;;32.20;96.00;;;;;;5080335;28;20194;-68
2022/07/20 09:34:07;;;;;;;6.78;2.50;;;32.20;96.40;;;;;;5081866;28;20274;-69
2022/07/20 09:36:45;;;;;;;6.15;2.08;;;32.30;95.50;;;;;;5076064;28;20200;-66
2022/07/20 09:39:18;;;;;;;4.50;2.42;;;32.40;96.40;;;;;;5077647;28;20224;-66
2022/07/20 09:42:04;;;;;;;7.65;2.22;;;32.40;94.40;;;;;;5079385;28;20526;-65
2022/07/20 09:44:31;;;;;;;7.43;2.63;;;32.60;93.90;;;;;;5067752;28;20194;-67
2022/07/20 09:46:58;;;;;;;8.73;2.13;;;32.70;93.20;;;;;;5065324;28;20658;-65
2022/07/20 09:49:34;;;;;;;8.30;2.70;;;32.80;93.60;;;;;;5071352;28;20396;-64
2022/07/20 09:52:03;;;;;;;14.48;2.42;;;33.00;94.10;;;;;;5091602;28;20178;-65
2022/07/20 09:54:29;;;;;;;9.23;2.47;;;33.10;93.50;;;;;;5062854;28;20983;-65
2022/07/20 09:56:57;;;;;;;6.40;2.63;;;33.00;93.30;;;;;;5082590;28;20726;-65
2022/07/20 09:59:24;;;;;;;7.82;2.80;;;33.10;93.50;;;;;;5080635;28;20657;-66
2022/07/20 10:01:53;;;;;;;8.15;2.53;;;33.20;93.20;;;;;;5084305;28;20275;-66
2022/07/20 10:04:21;;;;;;;9.82;2.20;;;33.20;93.30;;;;;;5084746;28;20182;-66
2022/07/20 10:06:52;;;;;;;12.02;2.20;;;33.30;92.80;;;;;;5080024;28;20190;-65
2022/07/20 10:09:19;;;;;;;10.35;2.75;;;33.30;92.30;;;;;;5063989;28;20217;-65
2022/07/20 10:11:47;;;;;;;8.02;2.17;;;33.30;92.60;;;;;;5050065;28;20202;-65
2022/07/20 10:14:18;;;;;;;5.20;2.20;;;33.30;92.60;;;;;;5050686;28;20189;-65
2022/07/20 10:16:53;;;;;;;7.78;2.50;;;33.40;91.10;;;;;;5086089;28;20228;-66
2022/07/20 10:19:43;;;;;;;6.57;2.30;;;33.30;91.10;;;;;;5081288;28;20219;-65
2022/07/20 10:22:10;;;;;;;7.18;2.20;;;33.50;92.00;;;;;;5086010;28;20194;-64
2022/07/20 10:24:38;;;;;;;14.38;2.85;;;33.40;91.70;;;;;;5085986;28;20206;-64
2022/07/20 10:27:15;;;;;;;5.55;2.13;;;33.40;91.60;;;;;;5057942;28;20237;-66
2022/07/20 10:29:48;;;;;;;7.38;2.50;;;33.40;91.50;;;;;;5087564;28;20212;-65
2022/07/20 10:32:22;;;;;;;8.88;2.63;;;33.50;91.40;;;;;;5065689;28;20696;-64
2022/07/20 10:34:59;;;;;;;9.82;2.47;;;33.50;91.30;;;;;;5081425;28;20239;-66
2022/07/20 10:37:43;;;;;;;6.18;2.25;;;33.60;91.60;;;;;;5084700;28;20182;-64
2022/07/20 10:40:16;;;;;;;6.93;2.38;;;33.60;91.70;;;;;;5080953;28;20273;-65
2022/07/20 10:42:53;;;;;;;6.60;2.33;;;33.50;91.10;;;;;;5090565;28;20389;-65
2022/07/20 10:45:19;;;;;;;7.70;2.83;;;33.50;91.00;;;;;;5088100;28;20193;-64
2022/07/20 10:47:48;;;;;;;7.60;2.25;;;33.50;90.90;;;;;;5089662;28;20186;-66
2022/07/20 10:50:23;;;;;;;11.23;2.33;;;33.60;91.30;;;;;;5089712;28;20228;-64
2022/07/20 10:52:53;;;;;;;9.02;2.28;;;33.60;90.80;;;;;;5087589;28;20831;-66
2022/07/20 10:55:35;;;;;;;10.20;2.63;;;33.50;91.10;;;;;;5085652;28;20186;-65
2022/07/20 10:58:15;;;;;;;9.05;2.45;;;33.50;91.70;;;;;;5059436;28;20729;-65
2022/07/20 11:00:53;;;;;;;7.55;2.40;;;33.50;91.70;;;;;;5085567;28;20614;-65
2022/07/20 11:03:22;;;;;;;5.15;2.72;;;33.50;91.40;;;;;;5089313;28;20209;-64
2022/07/20 11:06:08;;;;;;;11.18;2.70;;;33.50;91.50;;;;;;5066647;28;20183;-65
2022/07/20 11:08:38;;;;;;;10.20;2.50;;;33.50;91.00;;;;;;5070208;28;20218;-65
2022/07/20 11:11:07;;;;;;;10.52;2.72;;;33.50;91.30;;;;;;5069883;28;20190;-65
2022/07/20 11:13:34;;;;;;;7.03;2.25;;;33.40;91.40;;;;;;5083985;28;20191;-65
2022/07/20 11:16:03;;;;;;;9.90;2.15;;;33.40;91.70;;;;;;5087683;28;20186;-66
2022/07/20 11:18:32;;;;;;;5.60;2.20;;;33.40;91.20;;;;;;5085826;28;20190;-65
2022/07/20 11:21:03;;;;;;;4.80;2.20;;;33.50;90.30;;;;;;5081816;28;20675;-65
2022/07/20 11:23:48;;;;;;;11.57;2.38;;;33.40;87.10;;;;;;5086671;28;20197;-65
2022/07/20 11:26:18;;;;;;;9.73;2.20;;;33.30;90.00;;;;;;5083523;28;20646;-67
2022/07/20 11:28:56;;;;;;;5.40;2.00;;;33.30;88.90;;;;;;5087636;28;20229;-67
2022/07/20 11:31:28;;;;;;;2.78;1.70;;;33.30;88.10;;;;;;5072612;28;20182;-65
2022/07/20 11:33:57;;;;;;;7.43;1.95;;;33.30;82.80;;;;;;5080301;28;20210;-66
2022/07/20 11:36:34;;;;;;;6.82;2.05;;;33.30;84.10;;;;;;5050158;28;20186;-65
2022/07/20 11:39:12;;;;;;;6.40;1.90;;;33.30;85.00;;;;;;5066176;28;20190;-65
2022/07/20 11:41:41;;;;;;;3.80;1.50;;;33.30;83.40;;;;;;5083993;28;20186;-66
2022/07/20 11:44:17;;;;;;;5.85;1.80;;;33.30;83.10;;;;;;5087869;28;20243;-66
2022/07/20 11:46:44;;;;;;;7.30;1.95;;;33.30;84.20;;;;;;5081900;28;20254;-66
2022/07/20 11:49:16;;;;;;;10.10;1.88;;;33.30;86.30;;;;;;5078897;28;20210;-65
2022/07/20 11:51:58;;;;;;;6.32;1.95;;;33.30;86.90;;;;;;5089376;28;20175;-66
2022/07/20 11:54:37;;;;;;;4.05;1.90;;;33.30;87.60;;;;;;5084669;28;20277;-65
2022/07/20 11:57:06;;;;;;;3.80;1.90;;;33.30;86.70;;;;;;5084319;28;20190;-65
2022/07/20 11:59:42;;;;;;;5.68;1.73;;;33.30;85.50;;;;;;5086903;28;20277;-67
2022/07/20 12:02:12;;;;;;;7.57;2.28;;;33.20;84.80;;;;;;5072215;28;20562;-66
2022/07/20 12:04:38;;;;;;;10.25;2.40;;;33.30;91.60;;;;;;5070850;28;20193;-65
2022/07/20 12:08:07;;;;;;;6.15;2.33;;;33.30;92.00;;;;;;5069756;28;20246;-65
2022/07/20 12:09:52;;;;;;;9.02;2.50;;;33.30;91.80;;;;;;5064250;28;20305;-64
2022/07/20 12:12:47;;;;;;;7.47;2.40;;;33.30;91.50;;;;;;5054441;28;20186;-66
2022/07/20 12:15:15;;;;;;;11.82;2.72;;;33.20;91.70;;;;;;5056611;28;20206;-65
2022/07/20 12:17:51;;;;;;;8.52;2.42;;;33.20;92.50;;;;;;5068325;28;20928;-65
2022/07/20 12:20:17;;;;;;;7.93;2.08;;;33.20;92.50;;;;;;5087411;28;20189;-65
2022/07/20 12:22:58;;;;;;;4.57;1.98;;;33.20;92.80;;;;;;5085215;28;20654;-65
2022/07/20 12:25:45;;;;;;;8.95;2.35;;;33.10;91.80;;;;;;5061596;28;20512;-66
2022/07/20 12:28:11;;;;;;;7.25;1.95;;;33.10;92.40;;;;;;5084999;28;20194;-65
2022/07/20 12:30:39;;;;;;;11.07;2.63;;;33.10;91.60;;;;;;5102084;28;20236;-64
2022/07/20 12:33:14;;;;;;;8.15;2.10;;;33.10;91.60;;;;;;5088881;28;20193;-65
2022/07/20 12:35:45;;;;;;;4.60;2.10;;;33.00;92.20;;;;;;5084515;28;20792;-65
2022/07/20 12:38:14;;;;;;;6.10;1.98;;;33.00;91.60;;;;;;5052033;28;20196;-67
2022/07/20 12:40:45;;;;;;;7.13;1.88;;;33.10;92.00;;;;;;5088892;28;20269;-65
2022/07/20 12:43:31;;;;;;;6.80;2.10;;;33.00;91.20;;;;;;5051146;28;20707;-66
2022/07/20 12:46:02;;;;;;;6.22;2.30;;;33.00;91.10;;;;;;5085093;28;20626;-67
2022/07/20 12:48:29;;;;;;;12.65;2.30;;;33.10;91.60;;;;;;5086253;28;20216;-65
2022/07/20 12:50:56;;;;;;;8.68;2.30;;;33.10;90.80;;;;;;5086515;28;20189;-67
2022/07/20 12:53:23;;;;;;;5.68;1.95;;;33.10;90.90;;;;;;5067063;28;20654;-65
2022/07/20 12:55:49;;;;;;;5.30;2.17;;;33.00;90.30;;;;;;5084147;28;20183;-65